createdAt,value
2017-10-28T00:01:12.812Z,55.70
2017-10-28T00:03:40.363Z,55.70
2017-10-28T00:06:07.869Z,55.30
2017-10-28T00:08:36.164Z,55.50
2017-10-28T00:11:03.672Z,55.50
2017-10-28T00:13:31.203Z,55.60
2017-10-28T00:15:58.711Z,55.40
2017-10-28T00:18:27.007Z,55.50
2017-10-28T00:20:54.543Z,55.40
2017-10-28T00:23:22.840Z,55.50
2017-10-28T00:25:50.351Z,55.40
2017-10-28T00:28:17.874Z,55.40
2017-10-28T00:33:56.793Z,55.30
2017-10-28T00:36:24.329Z,55.20
2017-10-28T00:38:51.886Z,55.20
2017-10-28T00:41:19.421Z,55.30
2017-10-28T00:43:46.980Z,55.40
2017-10-28T00:46:14.518Z,55.50
2017-10-28T00:48:42.071Z,55.50
2017-10-28T00:51:09.605Z,55.60
2017-10-28T00:53:37.909Z,55.60
2017-10-28T00:56:05.444Z,55.60
2017-10-28T00:58:33.785Z,55.90
2017-10-28T01:01:01.308Z,55.80
2017-10-28T01:03:28.841Z,55.90
2017-10-28T01:05:57.153Z,56.00
2017-10-28T01:08:24.691Z,55.90
2017-10-28T01:10:52.245Z,55.90
2017-10-28T01:13:20.546Z,56.00
2017-10-28T01:15:48.095Z,55.90
2017-10-28T01:18:15.625Z,56.00
2017-10-28T01:20:43.166Z,56.00
2017-10-28T01:23:10.697Z,56.00
2017-10-28T01:25:38.241Z,56.00
2017-10-28T01:28:05.780Z,56.10
2017-10-28T01:30:34.116Z,56.10
2017-10-28T01:33:01.646Z,56.10
2017-10-28T01:35:29.196Z,56.10
2017-10-28T01:37:56.765Z,56.10
2017-10-28T01:40:24.309Z,56.10
2017-10-28T01:42:52.621Z,56.20
2017-10-28T01:45:20.171Z,56.10
2017-10-28T01:47:47.713Z,56.10
2017-10-28T01:50:15.266Z,56.00
2017-10-28T01:52:43.570Z,56.00
2017-10-28T01:55:11.133Z,55.90
2017-10-28T01:57:38.669Z,55.90
2017-10-28T02:00:06.224Z,56.00
2017-10-28T02:02:34.536Z,56.20
2017-10-28T02:05:02.105Z,56.10
2017-10-28T02:07:30.405Z,56.10
2017-10-28T02:09:57.961Z,56.10
2017-10-28T02:12:25.509Z,56.20
2017-10-28T02:14:53.046Z,56.30
2017-10-28T02:17:20.600Z,56.20
2017-10-28T02:19:48.138Z,56.10
2017-10-28T02:22:16.447Z,56.20
2017-10-28T02:24:43.978Z,56.20
2017-10-28T02:27:12.292Z,56.10
2017-10-28T02:29:40.589Z,56.20
2017-10-28T02:32:08.140Z,56.20
2017-10-28T02:34:35.679Z,56.20
2017-10-28T02:37:03.242Z,56.40
2017-10-28T02:39:30.776Z,56.40
2017-10-28T02:41:59.109Z,56.50
2017-10-28T02:44:26.653Z,56.50
2017-10-28T02:46:54.225Z,56.50
2017-10-28T02:49:21.772Z,56.60
2017-10-28T02:51:49.321Z,56.60
2017-10-28T02:54:16.849Z,56.60
2017-10-28T02:56:45.177Z,56.50
2017-10-28T02:59:12.714Z,56.30
2017-10-28T03:01:40.278Z,56.40
2017-10-28T03:04:07.827Z,56.60
2017-10-28T03:06:35.389Z,56.60
2017-10-28T03:09:02.947Z,56.60
2017-10-28T03:11:30.483Z,56.70
2017-10-28T03:13:58.045Z,56.60
2017-10-28T03:16:25.593Z,56.70
2017-10-28T03:18:53.151Z,56.70
2017-10-28T03:21:20.687Z,56.70
2017-10-28T03:23:48.271Z,56.70
2017-10-28T03:26:15.806Z,56.80
2017-10-28T03:28:43.362Z,56.90
2017-10-28T03:31:10.911Z,56.90
2017-10-28T03:33:38.489Z,56.90
2017-10-28T03:36:06.778Z,56.90
2017-10-28T03:38:35.099Z,57.00
2017-10-28T03:41:02.645Z,56.90
2017-10-28T03:43:30.189Z,57.10
2017-10-28T03:45:57.735Z,57.10
2017-10-28T03:48:25.295Z,57.10
2017-10-28T03:50:52.840Z,57.10
2017-10-28T03:53:20.503Z,57.00
2017-10-28T03:55:48.044Z,57.10
2017-10-28T03:58:15.596Z,57.00
2017-10-28T04:00:43.896Z,56.90
2017-10-28T04:03:11.437Z,56.90
2017-10-28T04:05:39.354Z,56.90
2017-10-28T04:08:06.922Z,56.80
2017-10-28T04:10:34.499Z,57.00
2017-10-28T04:13:02.053Z,56.90
2017-10-28T04:15:29.616Z,56.90
2017-10-28T04:17:57.144Z,56.90
2017-10-28T04:20:24.689Z,56.90
2017-10-28T04:22:52.237Z,57.40
2017-10-28T04:25:19.836Z,56.90
2017-10-28T04:27:47.398Z,56.90
2017-10-28T04:30:14.960Z,56.90
2017-10-28T04:32:42.508Z,56.90
2017-10-28T04:35:10.053Z,56.90
2017-10-28T04:37:37.600Z,57.00
2017-10-28T04:40:05.152Z,56.90
2017-10-28T04:42:33.454Z,56.80
2017-10-28T04:45:01.007Z,56.80
2017-10-28T04:47:28.551Z,56.70
2017-10-28T04:49:56.889Z,56.80
2017-10-28T04:52:24.435Z,56.60
2017-10-28T04:54:52.002Z,56.70
2017-10-28T04:57:19.565Z,56.80
2017-10-28T04:59:47.144Z,56.70
2017-10-28T05:02:15.461Z,56.70
2017-10-28T05:04:43.040Z,56.70
2017-10-28T05:07:10.573Z,56.70
2017-10-28T05:09:38.886Z,56.70
2017-10-28T05:12:06.425Z,56.70
2017-10-28T05:14:33.950Z,56.70
2017-10-28T05:17:01.508Z,56.60
2017-10-28T05:19:29.047Z,56.50
2017-10-28T05:21:56.600Z,56.60
2017-10-28T05:24:24.149Z,56.60
2017-10-28T05:26:51.699Z,56.50
2017-10-28T05:29:19.239Z,56.50
2017-10-28T05:31:46.796Z,56.60
2017-10-28T05:34:15.112Z,56.80
2017-10-28T05:36:42.666Z,56.80
2017-10-28T05:39:10.205Z,56.70
2017-10-28T05:41:37.752Z,56.70
2017-10-28T05:44:06.051Z,56.80
2017-10-28T05:46:33.600Z,56.70
2017-10-28T05:49:01.126Z,56.90
2017-10-28T05:51:28.673Z,56.90
2017-10-28T05:53:56.212Z,56.80
2017-10-28T05:56:23.773Z,56.90
2017-10-28T05:58:51.306Z,56.90
2017-10-28T06:01:18.862Z,57.00
2017-10-28T06:03:46.403Z,57.10
2017-10-28T06:06:14.725Z,57.20
2017-10-28T06:08:43.043Z,58.00
2017-10-28T06:11:10.586Z,57.90
2017-10-28T06:13:38.110Z,57.80
2017-10-28T06:16:05.682Z,57.80
2017-10-28T06:18:33.212Z,57.80
2017-10-28T06:21:01.533Z,57.80
2017-10-28T06:23:29.097Z,57.80
2017-10-28T06:25:56.638Z,57.80
2017-10-28T06:28:24.189Z,57.80
2017-10-28T06:30:51.736Z,57.90
2017-10-28T06:33:19.326Z,58.00
2017-10-28T06:35:46.881Z,58.00
2017-10-28T06:38:14.426Z,58.00
2017-10-28T06:40:41.957Z,57.90
2017-10-28T06:43:09.579Z,57.90
2017-10-28T06:45:37.105Z,57.90
2017-10-28T06:48:04.642Z,58.00
2017-10-28T06:50:32.940Z,58.20
2017-10-28T06:53:01.261Z,57.30
2017-10-28T06:55:28.789Z,58.10
2017-10-28T06:57:56.341Z,57.30
2017-10-28T07:00:24.634Z,57.20
2017-10-28T07:02:52.686Z,57.10
2017-10-28T07:05:20.293Z,57.10
2017-10-28T07:07:59.450Z,57.10
2017-10-28T07:10:27.027Z,57.10
2017-10-28T07:12:55.429Z,57.10
2017-10-28T07:15:22.981Z,57.00
2017-10-28T07:17:52.326Z,57.10
2017-10-28T07:20:20.881Z,57.00
2017-10-28T07:22:49.364Z,56.90
2017-10-28T07:25:23.192Z,57.10
2017-10-28T07:27:52.675Z,56.80
2017-10-28T07:30:20.225Z,56.80
2017-10-28T07:32:50.457Z,56.60
2017-10-28T07:35:18.021Z,56.60
2017-10-28T07:37:47.548Z,56.30
2017-10-28T07:40:15.227Z,56.00
2017-10-28T07:42:42.735Z,56.00
2017-10-28T07:45:10.268Z,56.10
2017-10-28T07:47:37.776Z,55.90
2017-10-28T07:50:05.302Z,55.90
2017-10-28T07:52:33.575Z,55.50
2017-10-28T07:55:01.860Z,55.50
2017-10-28T07:57:29.369Z,55.40
2017-10-28T07:59:56.899Z,55.40
2017-10-28T08:02:24.414Z,55.10
2017-10-28T08:04:51.941Z,55.00
2017-10-28T08:07:19.450Z,55.00
2017-10-28T08:09:46.981Z,55.00
2017-10-28T08:12:14.631Z,54.70
2017-10-28T08:17:15.991Z,54.90
2017-10-28T08:19:43.525Z,55.00
2017-10-28T08:22:11.036Z,55.20
2017-10-28T08:24:38.561Z,55.10
2017-10-28T08:27:06.066Z,55.10
2017-10-28T08:29:36.346Z,55.60
2017-10-28T08:32:09.605Z,55.00
2017-10-28T08:34:37.179Z,55.20
2017-10-28T08:37:04.751Z,55.50
2017-10-28T08:39:32.288Z,55.30
2017-10-28T08:41:59.824Z,55.30
2017-10-28T08:44:29.120Z,55.60
2017-10-28T08:46:57.431Z,55.60
2017-10-28T08:49:24.990Z,55.50
2017-10-28T08:51:52.534Z,55.40
2017-10-28T08:54:20.055Z,55.70
2017-10-28T08:56:47.600Z,55.50
2017-10-28T08:59:15.119Z,55.30
2017-10-28T09:01:42.654Z,55.20
2017-10-28T09:04:10.927Z,55.00
2017-10-28T09:06:38.459Z,55.00
2017-10-28T09:09:05.980Z,55.10
2017-10-28T09:11:33.508Z,54.80
2017-10-28T09:14:01.783Z,54.40
2017-10-28T09:16:29.318Z,54.40
2017-10-28T09:18:56.837Z,54.40
2017-10-28T09:21:24.368Z,54.30
2017-10-28T09:23:52.658Z,54.20
2017-10-28T09:26:20.205Z,54.20
2017-10-28T09:28:47.738Z,54.00
2017-10-28T09:31:15.258Z,53.70
2017-10-28T09:33:42.784Z,53.70
2017-10-28T09:36:11.116Z,53.40
2017-10-28T09:38:38.632Z,53.40
2017-10-28T09:41:06.139Z,53.30
2017-10-28T09:43:33.680Z,53.10
2017-10-28T09:46:01.200Z,53.40
2017-10-28T09:48:28.731Z,53.20
2017-10-28T09:50:56.235Z,53.20
2017-10-28T09:53:23.779Z,53.20
2017-10-28T09:55:52.049Z,53.40
2017-10-28T09:58:19.583Z,53.30
2017-10-28T10:00:47.087Z,53.30
2017-10-28T10:03:14.623Z,52.50
2017-10-28T10:05:42.132Z,52.30
2017-10-28T10:08:09.660Z,52.00
2017-10-28T10:10:37.194Z,51.30
2017-10-28T10:13:05.499Z,51.30
2017-10-28T10:15:33.049Z,51.20
2017-10-28T10:18:01.362Z,50.60
2017-10-28T10:20:28.867Z,50.50
2017-10-28T10:22:56.408Z,50.00
2017-10-28T10:25:23.924Z,51.10
2017-10-28T10:27:51.459Z,49.80
2017-10-28T10:30:19.758Z,50.00
2017-10-28T10:32:47.322Z,49.90
2017-10-28T10:35:14.855Z,49.70
2017-10-28T10:37:43.201Z,49.80
2017-10-28T10:40:10.723Z,49.80
2017-10-28T10:42:38.235Z,49.30
2017-10-28T10:45:05.775Z,49.00
2017-10-28T10:47:33.294Z,50.00
2017-10-28T10:50:00.835Z,49.20
2017-10-28T10:52:29.112Z,48.20
2017-10-28T10:54:56.676Z,48.10
2017-10-28T10:57:24.203Z,48.10
2017-10-28T10:59:51.731Z,48.10
2017-10-28T11:02:19.280Z,48.00
2017-10-28T11:04:46.810Z,48.30
2017-10-28T11:07:15.104Z,48.50
2017-10-28T11:09:42.652Z,48.40
2017-10-28T11:12:10.931Z,48.40
2017-10-28T11:14:39.256Z,47.60
2017-10-28T11:17:06.769Z,47.50
2017-10-28T11:19:34.317Z,47.00
2017-10-28T11:22:02.595Z,46.60
2017-10-28T11:24:30.906Z,46.90
2017-10-28T11:26:58.464Z,46.80
2017-10-28T11:29:25.992Z,46.50
2017-10-28T11:31:53.515Z,46.50
2017-10-28T11:34:21.057Z,46.50
2017-10-28T11:36:48.577Z,46.70
2017-10-28T11:39:16.174Z,46.80
2017-10-28T11:41:43.694Z,47.10
2017-10-28T11:44:11.219Z,46.70
2017-10-28T11:46:38.743Z,47.20
2017-10-28T11:49:06.263Z,47.50
2017-10-28T11:51:34.563Z,47.40
2017-10-28T11:54:02.094Z,47.30
2017-10-28T11:56:29.637Z,47.00
2017-10-28T11:58:57.163Z,46.90
2017-10-28T12:01:24.694Z,46.30
2017-10-28T12:03:52.233Z,46.40
2017-10-28T12:06:20.522Z,46.30
2017-10-28T12:08:48.830Z,46.20
2017-10-28T12:11:16.361Z,46.10
2017-10-28T12:13:43.927Z,46.30
2017-10-28T12:16:11.473Z,46.30
2017-10-28T12:18:39.008Z,46.30
2017-10-28T12:21:06.527Z,45.80
2017-10-28T12:23:34.059Z,46.10
2017-10-28T12:26:01.588Z,45.90
2017-10-28T12:28:29.143Z,46.20
2017-10-28T12:30:56.664Z,46.50
2017-10-28T12:33:25.020Z,46.00
2017-10-28T12:35:52.572Z,45.90
2017-10-28T12:38:20.880Z,45.70
2017-10-28T12:40:48.432Z,45.70
2017-10-28T12:43:15.978Z,45.80
2017-10-28T12:45:43.519Z,46.20
2017-10-28T12:48:11.829Z,45.80
2017-10-28T12:50:39.347Z,45.70
2017-10-28T12:53:07.695Z,45.50
2017-10-28T12:55:35.217Z,45.50
2017-10-28T12:58:02.755Z,45.50
2017-10-28T13:00:31.060Z,45.20
2017-10-28T13:02:58.599Z,45.10
2017-10-28T13:05:26.151Z,44.60
2017-10-28T13:07:54.461Z,44.80
2017-10-28T13:10:22.035Z,44.70
2017-10-28T13:12:49.548Z,45.00
2017-10-28T13:15:17.870Z,44.40
2017-10-28T13:17:45.407Z,44.40
2017-10-28T13:20:12.952Z,44.30
2017-10-28T13:22:41.267Z,44.20
2017-10-28T13:25:08.811Z,44.10
2017-10-28T13:27:36.345Z,43.90
2017-10-28T13:30:04.662Z,43.70
2017-10-28T13:32:32.196Z,43.60
2017-10-28T13:34:59.732Z,43.70
2017-10-28T13:37:27.260Z,43.90
2017-10-28T13:39:54.824Z,44.40
2017-10-28T13:42:22.373Z,44.80
2017-10-28T13:44:49.931Z,45.20
2017-10-28T13:47:17.492Z,45.00
2017-10-28T13:49:45.063Z,44.70
2017-10-28T13:52:12.598Z,44.30
2017-10-28T13:54:40.144Z,44.60
2017-10-28T13:57:07.691Z,44.60
2017-10-28T13:59:35.256Z,44.20
2017-10-28T14:02:02.792Z,44.70
2017-10-28T14:04:31.141Z,45.00
2017-10-28T14:06:58.687Z,45.00
2017-10-28T14:09:26.648Z,44.60
2017-10-28T14:11:54.212Z,44.80
2017-10-28T14:14:21.743Z,44.80
2017-10-28T14:16:49.295Z,44.80
2017-10-28T14:19:17.598Z,45.30
2017-10-28T14:21:45.131Z,45.30
2017-10-28T14:24:12.667Z,45.10
2017-10-28T14:26:40.983Z,45.50
2017-10-28T14:29:08.510Z,45.40
2017-10-28T14:31:36.844Z,45.80
2017-10-28T14:34:04.387Z,45.70
2017-10-28T14:36:31.924Z,45.50
2017-10-28T14:39:00.224Z,45.50
2017-10-28T14:41:27.770Z,45.30
2017-10-28T14:43:55.300Z,45.30
2017-10-28T14:46:22.865Z,45.20
2017-10-28T14:48:51.157Z,45.40
2017-10-28T14:51:19.468Z,45.70
2017-10-28T14:53:46.987Z,45.60
2017-10-28T14:56:15.302Z,45.80
2017-10-28T14:58:42.820Z,45.70
2017-10-28T15:01:11.151Z,46.20
2017-10-28T15:03:38.695Z,46.00
2017-10-28T15:06:06.222Z,46.00
2017-10-28T15:08:34.548Z,46.20
2017-10-28T15:11:02.165Z,46.10
2017-10-28T15:13:29.714Z,46.20
2017-10-28T15:15:58.039Z,46.30
2017-10-28T15:18:25.604Z,46.20
2017-10-28T15:20:53.141Z,46.50
2017-10-28T15:23:20.693Z,46.30
2017-10-28T15:25:48.238Z,46.00
2017-10-28T15:28:16.558Z,46.70
2017-10-28T15:30:44.072Z,46.50
2017-10-28T15:33:12.402Z,47.00
2017-10-28T15:35:39.926Z,46.90
2017-10-28T15:38:07.475Z,46.80
2017-10-28T15:40:35.767Z,46.80
2017-10-28T15:43:04.193Z,47.00
2017-10-28T15:45:31.747Z,46.90
2017-10-28T15:47:59.290Z,46.90
2017-10-28T15:50:27.176Z,47.10
2017-10-28T15:52:54.723Z,47.20
2017-10-28T15:55:22.254Z,47.10
2017-10-28T15:57:49.883Z,47.10
2017-10-28T16:00:17.391Z,47.20
2017-10-28T16:02:44.932Z,46.60
2017-10-28T16:05:12.471Z,47.10
2017-10-28T16:07:40.068Z,46.80
2017-10-28T16:10:07.599Z,47.00
2017-10-28T16:12:35.947Z,47.10
2017-10-28T16:15:03.478Z,47.00
2017-10-28T16:17:31.026Z,47.20
2017-10-28T16:19:58.564Z,47.40
2017-10-28T16:22:26.124Z,47.40
2017-10-28T16:24:53.683Z,47.40
2017-10-28T16:27:21.216Z,47.40
2017-10-28T16:29:48.755Z,47.40
2017-10-28T16:32:16.279Z,47.60
2017-10-28T16:34:43.824Z,47.50
2017-10-28T16:37:13.364Z,47.70
2017-10-28T16:39:40.909Z,47.80
2017-10-28T16:42:08.435Z,47.80
2017-10-28T16:44:36.750Z,47.80
2017-10-28T16:47:04.294Z,47.70
2017-10-28T16:49:31.867Z,48.00
2017-10-28T16:51:59.387Z,48.00
2017-10-28T16:54:27.698Z,48.20
2017-10-28T16:56:55.223Z,48.10
2017-10-28T16:59:23.527Z,48.00
2017-10-28T17:01:55.783Z,47.90
2017-10-28T17:04:24.074Z,48.20
2017-10-28T17:06:51.599Z,48.00
2017-10-28T17:09:19.168Z,48.30
2017-10-28T17:11:47.455Z,48.30
2017-10-28T17:14:15.783Z,48.30
2017-10-28T17:16:44.311Z,48.20
2017-10-28T17:19:12.636Z,48.60
2017-10-28T17:21:40.167Z,49.10
2017-10-28T17:24:07.681Z,48.60
2017-10-28T17:26:35.271Z,48.40
2017-10-28T17:29:03.587Z,48.30
2017-10-28T17:31:31.123Z,48.20
2017-10-28T17:33:58.668Z,48.40
2017-10-28T17:36:26.971Z,48.60
2017-10-28T17:38:54.501Z,48.40
2017-10-28T17:41:22.826Z,48.30
2017-10-28T17:43:50.387Z,48.20
2017-10-28T17:46:17.987Z,48.30
2017-10-28T17:48:45.509Z,48.20
2017-10-28T17:51:13.068Z,48.20
2017-10-28T17:53:40.590Z,47.90
2017-10-28T17:56:08.879Z,47.80
2017-10-28T17:58:36.396Z,47.70
2017-10-28T18:01:03.935Z,47.70
2017-10-28T18:03:31.465Z,47.40
2017-10-28T18:05:59.004Z,47.70
2017-10-28T18:08:27.469Z,47.60
2017-10-28T18:10:55.796Z,47.60
2017-10-28T18:13:23.361Z,47.50
2017-10-28T18:15:50.914Z,47.20
2017-10-28T18:18:18.455Z,47.40
2017-10-28T18:20:45.975Z,47.10
2017-10-28T18:23:13.495Z,46.90
2017-10-28T18:25:41.026Z,46.90
2017-10-28T18:28:08.561Z,46.90
2017-10-28T18:30:36.080Z,46.90
2017-10-28T18:33:03.682Z,46.70
2017-10-28T18:35:31.236Z,46.70
2017-10-28T18:37:58.788Z,46.90
2017-10-28T18:40:31.390Z,46.50
2017-10-28T18:43:03.164Z,46.80
2017-10-28T18:45:32.640Z,46.70
2017-10-28T18:48:00.217Z,46.70
2017-10-28T18:50:29.519Z,45.20
2017-10-28T18:52:57.833Z,45.50
2017-10-28T18:55:26.135Z,45.50
2017-10-28T18:57:53.700Z,45.50
2017-10-28T19:00:21.227Z,45.40
2017-10-28T19:02:48.812Z,45.20
2017-10-28T19:05:18.423Z,45.00
2017-10-28T19:07:45.992Z,45.50
2017-10-28T19:10:13.517Z,44.80
2017-10-28T19:12:41.064Z,45.10
2017-10-28T19:15:08.609Z,44.50
2017-10-28T19:17:36.158Z,44.40
2017-10-28T19:20:03.712Z,44.30
2017-10-28T19:22:32.031Z,44.30
2017-10-28T19:24:59.558Z,44.20
2017-10-28T19:27:27.860Z,44.40
2017-10-28T19:29:55.369Z,44.20
2017-10-28T19:32:22.929Z,43.80
2017-10-28T19:34:50.464Z,43.50
2017-10-28T19:37:17.975Z,43.50
2017-10-28T19:39:46.267Z,43.40
2017-10-28T19:42:13.782Z,43.40
2017-10-28T19:44:41.314Z,43.50
2017-10-28T19:47:08.818Z,43.30
2017-10-28T19:49:37.119Z,42.50
2017-10-28T19:52:04.623Z,42.50
2017-10-28T19:54:32.158Z,42.50
2017-10-28T19:56:59.668Z,43.30
2017-10-28T19:59:27.190Z,43.60
2017-10-28T20:01:54.695Z,43.20
2017-10-28T20:04:22.991Z,42.40
2017-10-28T20:06:50.508Z,42.40
2017-10-28T20:09:18.027Z,41.60
2017-10-28T20:11:45.532Z,42.00
2017-10-28T20:14:13.067Z,42.00
2017-10-28T20:16:40.571Z,41.40
2017-10-28T20:19:08.861Z,42.30
2017-10-28T20:21:36.373Z,42.20
2017-10-28T20:24:03.899Z,43.70
2017-10-28T20:26:31.409Z,44.00
2017-10-28T20:28:58.927Z,43.90
2017-10-28T20:31:26.447Z,44.20
2017-10-28T20:33:53.987Z,44.80
2017-10-28T20:36:21.483Z,44.30
2017-10-28T20:38:48.979Z,43.70
2017-10-28T20:41:16.500Z,43.90
2017-10-28T20:43:44.009Z,43.90
2017-10-28T20:46:11.524Z,44.20
2017-10-28T20:48:39.035Z,44.00
2017-10-28T20:51:06.555Z,43.80
2017-10-28T20:53:34.054Z,43.90
2017-10-28T20:56:01.568Z,44.20
2017-10-28T20:58:29.070Z,44.40
2017-10-28T21:00:56.587Z,44.40
2017-10-28T21:03:24.098Z,44.10
2017-10-28T21:05:51.606Z,44.20
2017-10-28T21:08:19.108Z,44.60
2017-10-28T21:10:46.621Z,44.70
2017-10-28T21:13:14.124Z,44.10
2017-10-28T21:15:41.642Z,44.00
2017-10-28T21:18:09.139Z,43.80
2017-10-28T21:20:36.658Z,43.60
2017-10-28T21:23:04.161Z,44.00
2017-10-28T21:25:31.683Z,44.20
2017-10-28T21:27:59.187Z,44.70
2017-10-28T21:30:27.474Z,45.80
2017-10-28T21:32:55.805Z,45.60
2017-10-28T21:35:23.362Z,45.50
2017-10-28T21:37:50.867Z,45.60
2017-10-28T21:40:18.365Z,45.60
2017-10-28T21:42:45.886Z,46.50
2017-10-28T21:45:14.150Z,46.60
2017-10-28T21:47:41.670Z,46.50
2017-10-28T21:50:09.168Z,47.40
2017-10-28T21:52:36.683Z,48.80
2017-10-28T21:55:04.191Z,49.90
2017-10-28T21:57:31.723Z,49.80
2017-10-28T21:59:59.222Z,49.70
2017-10-28T22:02:27.521Z,50.80
2017-10-28T22:04:55.034Z,50.70
2017-10-28T22:07:22.555Z,51.20
2017-10-28T22:09:50.069Z,51.20
2017-10-28T22:12:18.367Z,50.60
2017-10-28T22:14:45.886Z,50.60
2017-10-28T22:17:13.412Z,50.10
2017-10-28T22:19:40.919Z,50.60
2017-10-28T22:22:09.203Z,52.20
2017-10-28T22:24:36.703Z,52.10
2017-10-28T22:27:04.227Z,52.50
2017-10-28T22:29:32.492Z,54.10
2017-10-28T22:32:00.775Z,54.30
2017-10-28T22:34:28.275Z,54.80
2017-10-28T22:36:55.790Z,54.30
2017-10-28T22:39:24.054Z,54.00
2017-10-28T22:41:51.556Z,54.00
2017-10-28T22:44:19.075Z,54.50
2017-10-28T22:46:46.578Z,54.00
2017-10-28T22:49:14.858Z,54.60
2017-10-28T22:51:42.352Z,54.60
2017-10-28T22:54:09.883Z,55.00
2017-10-28T22:56:37.388Z,55.30
2017-10-28T22:59:04.910Z,56.00
2017-10-28T23:01:32.406Z,56.20
2017-10-28T23:03:59.923Z,56.90
2017-10-28T23:06:27.427Z,57.30
2017-10-28T23:08:55.711Z,57.40
2017-10-28T23:11:23.986Z,57.40
2017-10-28T23:13:52.271Z,57.50
2017-10-28T23:16:20.543Z,57.80
2017-10-28T23:18:48.823Z,58.00
2017-10-28T23:21:17.086Z,57.90
2017-10-28T23:23:44.599Z,57.70
2017-10-28T23:26:12.118Z,58.50
2017-10-28T23:28:40.419Z,58.40
2017-10-28T23:31:13.885Z,58.90
2017-10-28T23:33:41.404Z,58.50
2017-10-28T23:36:08.932Z,58.70
2017-10-28T23:38:36.454Z,59.00
2017-10-28T23:41:04.925Z,59.00
2017-10-28T23:43:32.468Z,59.00
2017-10-28T23:45:59.977Z,59.00
2017-10-28T23:48:28.261Z,58.90
2017-10-28T23:50:55.782Z,58.90
2017-10-28T23:53:23.282Z,59.00
2017-10-28T23:55:50.799Z,59.20
2017-10-28T23:58:18.303Z,59.50
